sensor_id;sensor_type;location;lat;lon;timestamp;temperature;humidity
57566;DHT22;63999;43.882;-0.310;2024-01-15T00:00:50;7.10;97.50
57566;DHT22;63999;43.882;-0.310;2024-01-15T00:03:19;7.10;97.40
57566;DHT22;63999;43.882;-0.310;2024-01-15T00:05:46;7.10;97.30
57566;DHT22;63999;43.882;-0.310;2024-01-15T00:08:14;7.10;97.40
57566;DHT22;63999;43.882;-0.310;2024-01-15T00:10:41;7.10;97.40
57566;DHT22;63999;43.882;-0.310;2024-01-15T00:13:09;7.10;97.30
57566;DHT22;63999;43.882;-0.310;2024-01-15T00:15:36;7.10;97.30
57566;DHT22;63999;43.882;-0.310;2024-01-15T00:18:04;7.10;97.30
57566;DHT22;63999;43.882;-0.310;2024-01-15T00:20:32;7.10;97.30
57566;DHT22;63999;43.882;-0.310;2024-01-15T00:22:59;7.10;97.30
57566;DHT22;63999;43.882;-0.310;2024-01-15T00:25:39;7.20;97.20
57566;DHT22;63999;43.882;-0.310;2024-01-15T00:28:14;7.10;97.20
57566;DHT22;63999;43.882;-0.310;2024-01-15T00:30:41;7.10;97.30
57566;DHT22;63999;43.882;-0.310;2024-01-15T00:33:08;7.10;97.30
57566;DHT22;63999;43.882;-0.310;2024-01-15T00:35:36;7.20;97.30
57566;DHT22;63999;43.882;-0.310;2024-01-15T00:38:06;7.10;97.20
57566;DHT22;63999;43.882;-0.310;2024-01-15T00:40:34;7.20;97.30
57566;DHT22;63999;43.882;-0.310;2024-01-15T00:43:02;7.20;97.40
57566;DHT22;63999;43.882;-0.310;2024-01-15T00:45:29;7.20;97.40
57566;DHT22;63999;43.882;-0.310;2024-01-15T00:47:56;7.20;97.60
57566;DHT22;63999;43.882;-0.310;2024-01-15T00:50:26;7.20;97.50
57566;DHT22;63999;43.882;-0.310;2024-01-15T00:52:53;7.20;97.50
57566;DHT22;63999;43.882;-0.310;2024-01-15T00:55:21;7.20;97.50
57566;DHT22;63999;43.882;-0.310;2024-01-15T00:57:48;7.20;97.50
57566;DHT22;63999;43.882;-0.310;2024-01-15T01:00:15;7.20;97.60
57566;DHT22;63999;43.882;-0.310;2024-01-15T01:02:43;7.20;97.50
57566;DHT22;63999;43.882;-0.310;2024-01-15T01:05:13;7.20;97.60
57566;DHT22;63999;43.882;-0.310;2024-01-15T01:07:43;7.20;97.60
57566;DHT22;63999;43.882;-0.310;2024-01-15T01:10:14;7.20;97.50
57566;DHT22;63999;43.882;-0.310;2024-01-15T01:12:47;7.20;97.50
57566;DHT22;63999;43.882;-0.310;2024-01-15T01:15:16;7.20;97.60
57566;DHT22;63999;43.882;-0.310;2024-01-15T01:17:44;7.20;97.50
57566;DHT22;63999;43.882;-0.310;2024-01-15T01:20:12;7.20;97.50
57566;DHT22;63999;43.882;-0.310;2024-01-15T01:22:43;7.30;97.60
57566;DHT22;63999;43.882;-0.310;2024-01-15T01:25:10;7.20;97.70
57566;DHT22;63999;43.882;-0.310;2024-01-15T01:27:38;7.30;97.70
57566;DHT22;63999;43.882;-0.310;2024-01-15T01:30:06;7.30;97.60
57566;DHT22;63999;43.882;-0.310;2024-01-15T01:32:34;7.30;97.60
57566;DHT22;63999;43.882;-0.310;2024-01-15T01:35:04;7.30;97.60
57566;DHT22;63999;43.882;-0.310;2024-01-15T01:37:32;7.30;97.60
57566;DHT22;63999;43.882;-0.310;2024-01-15T01:40:01;7.30;97.60
57566;DHT22;63999;43.882;-0.310;2024-01-15T01:42:28;7.30;97.60
57566;DHT22;63999;43.882;-0.310;2024-01-15T01:44:55;7.30;97.70
57566;DHT22;63999;43.882;-0.310;2024-01-15T01:47:22;7.30;97.70
57566;DHT22;63999;43.882;-0.310;2024-01-15T01:49:50;7.40;97.80
57566;DHT22;63999;43.882;-0.310;2024-01-15T01:52:17;7.40;97.80
57566;DHT22;63999;43.882;-0.310;2024-01-15T01:54:47;7.40;97.80
57566;DHT22;63999;43.882;-0.310;2024-01-15T01:57:18;7.40;97.80
57566;DHT22;63999;43.882;-0.310;2024-01-15T01:59:47;7.40;97.70
57566;DHT22;63999;43.882;-0.310;2024-01-15T02:02:15;7.40;97.80
57566;DHT22;63999;43.882;-0.310;2024-01-15T02:04:43;7.40;97.80
57566;DHT22;63999;43.882;-0.310;2024-01-15T02:07:11;7.40;97.70
57566;DHT22;63999;43.882;-0.310;2024-01-15T02:09:39;7.40;97.80
57566;DHT22;63999;43.882;-0.310;2024-01-15T02:12:07;7.40;97.80
57566;DHT22;63999;43.882;-0.310;2024-01-15T02:14:34;7.40;97.80
57566;DHT22;63999;43.882;-0.310;2024-01-15T02:17:01;7.40;97.80
57566;DHT22;63999;43.882;-0.310;2024-01-15T02:19:29;7.40;97.70
57566;DHT22;63999;43.882;-0.310;2024-01-15T02:21:59;7.40;97.80
57566;DHT22;63999;43.882;-0.310;2024-01-15T02:24:30;7.40;97.70
57566;DHT22;63999;43.882;-0.310;2024-01-15T02:26:57;7.40;97.70
57566;DHT22;63999;43.882;-0.310;2024-01-15T02:29:24;7.40;97.70
57566;DHT22;63999;43.882;-0.310;2024-01-15T02:31:52;7.40;97.70
57566;DHT22;63999;43.882;-0.310;2024-01-15T02:34:20;7.40;97.80
57566;DHT22;63999;43.882;-0.310;2024-01-15T02:36:47;7.40;97.80
57566;DHT22;63999;43.882;-0.310;2024-01-15T02:39:15;7.40;97.90
57566;DHT22;63999;43.882;-0.310;2024-01-15T02:41:43;7.40;97.80
57566;DHT22;63999;43.882;-0.310;2024-01-15T02:44:10;7.50;97.90
57566;DHT22;63999;43.882;-0.310;2024-01-15T02:46:37;7.50;97.90
57566;DHT22;63999;43.882;-0.310;2024-01-15T02:49:04;7.50;97.80
57566;DHT22;63999;43.882;-0.310;2024-01-15T02:51:33;7.40;97.90
57566;DHT22;63999;43.882;-0.310;2024-01-15T02:54:04;7.40;97.80
57566;DHT22;63999;43.882;-0.310;2024-01-15T02:56:31;7.40;97.80
57566;DHT22;63999;43.882;-0.310;2024-01-15T02:58:59;7.40;97.80
57566;DHT22;63999;43.882;-0.310;2024-01-15T03:01:26;7.50;97.80
57566;DHT22;63999;43.882;-0.310;2024-01-15T03:03:54;7.40;97.80
57566;DHT22;63999;43.882;-0.310;2024-01-15T03:06:23;7.40;97.90
57566;DHT22;63999;43.882;-0.310;2024-01-15T03:08:51;7.50;97.80
57566;DHT22;63999;43.882;-0.310;2024-01-15T03:11:28;7.40;97.70
57566;DHT22;63999;43.882;-0.310;2024-01-15T03:14:06;7.50;97.80
57566;DHT22;63999;43.882;-0.310;2024-01-15T03:16:34;7.50;97.80
57566;DHT22;63999;43.882;-0.310;2024-01-15T03:19:01;7.50;97.80
57566;DHT22;63999;43.882;-0.310;2024-01-15T03:21:29;7.50;97.80
57566;DHT22;63999;43.882;-0.310;2024-01-15T03:24:00;7.50;97.80
57566;DHT22;63999;43.882;-0.310;2024-01-15T03:26:30;7.50;97.80
57566;DHT22;63999;43.882;-0.310;2024-01-15T03:29:05;7.50;97.90
57566;DHT22;63999;43.882;-0.310;2024-01-15T03:31:38;7.50;97.90
57566;DHT22;63999;43.882;-0.310;2024-01-15T03:34:08;7.50;98.00
57566;DHT22;63999;43.882;-0.310;2024-01-15T03:36:35;7.50;97.90
57566;DHT22;63999;43.882;-0.310;2024-01-15T03:39:05;7.50;97.80
57566;DHT22;63999;43.882;-0.310;2024-01-15T03:41:36;7.50;98.00
57566;DHT22;63999;43.882;-0.310;2024-01-15T03:44:09;7.50;97.90
57566;DHT22;63999;43.882;-0.310;2024-01-15T03:46:36;7.50;97.90
57566;DHT22;63999;43.882;-0.310;2024-01-15T03:49:04;7.50;97.80
57566;DHT22;63999;43.882;-0.310;2024-01-15T03:51:31;7.50;97.90
57566;DHT22;63999;43.882;-0.310;2024-01-15T03:53:59;7.50;97.90
57566;DHT22;63999;43.882;-0.310;2024-01-15T03:56:27;7.50;98.00
57566;DHT22;63999;43.882;-0.310;2024-01-15T03:58:57;7.50;97.90
57566;DHT22;63999;43.882;-0.310;2024-01-15T04:01:28;7.50;97.90
57566;DHT22;63999;43.882;-0.310;2024-01-15T04:03:56;7.50;97.90
57566;DHT22;63999;43.882;-0.310;2024-01-15T04:06:24;7.50;97.90
57566;DHT22;63999;43.882;-0.310;2024-01-15T04:08:52;7.50;97.90
57566;DHT22;63999;43.882;-0.310;2024-01-15T04:11:19;7.50;98.00
57566;DHT22;63999;43.882;-0.310;2024-01-15T04:13:47;7.50;97.90
57566;DHT22;63999;43.882;-0.310;2024-01-15T04:16:17;7.50;98.00
57566;DHT22;63999;43.882;-0.310;2024-01-15T04:18:45;7.50;97.90
57566;DHT22;63999;43.882;-0.310;2024-01-15T04:21:12;7.50;98.00
57566;DHT22;63999;43.882;-0.310;2024-01-15T04:23:40;7.50;97.90
57566;DHT22;63999;43.882;-0.310;2024-01-15T04:26:07;7.50;97.80
57566;DHT22;63999;43.882;-0.310;2024-01-15T04:28:35;7.50;97.90
57566;DHT22;63999;43.882;-0.310;2024-01-15T04:31:05;7.50;97.90
57566;DHT22;63999;43.882;-0.310;2024-01-15T04:33:32;7.50;98.00
57566;DHT22;63999;43.882;-0.310;2024-01-15T04:36:06;7.50;97.90
57566;DHT22;63999;43.882;-0.310;2024-01-15T04:38:37;7.50;98.10
57566;DHT22;63999;43.882;-0.310;2024-01-15T04:41:13;7.50;98.10
57566;DHT22;63999;43.882;-0.310;2024-01-15T04:43:48;7.50;98.00
57566;DHT22;63999;43.882;-0.310;2024-01-15T04:46:18;7.50;98.00
57566;DHT22;63999;43.882;-0.310;2024-01-15T04:48:46;7.50;97.90
57566;DHT22;63999;43.882;-0.310;2024-01-15T04:51:13;7.50;98.00
57566;DHT22;63999;43.882;-0.310;2024-01-15T04:53:41;7.50;98.00
57566;DHT22;63999;43.882;-0.310;2024-01-15T04:56:09;7.50;98.00
57566;DHT22;63999;43.882;-0.310;2024-01-15T04:58:36;7.50;98.00
57566;DHT22;63999;43.882;-0.310;2024-01-15T05:01:03;7.50;98.00
57566;DHT22;63999;43.882;-0.310;2024-01-15T05:03:31;7.50;98.00
57566;DHT22;63999;43.882;-0.310;2024-01-15T05:05:58;7.50;97.90
57566;DHT22;63999;43.882;-0.310;2024-01-15T05:08:25;7.50;97.90
57566;DHT22;63999;43.882;-0.310;2024-01-15T05:10:53;7.50;98.00
57566;DHT22;63999;43.882;-0.310;2024-01-15T05:13:20;7.50;98.00
57566;DHT22;63999;43.882;-0.310;2024-01-15T05:15:47;7.50;98.00
57566;DHT22;63999;43.882;-0.310;2024-01-15T05:18:15;7.50;98.00
57566;DHT22;63999;43.882;-0.310;2024-01-15T05:20:42;7.50;98.00
57566;DHT22;63999;43.882;-0.310;2024-01-15T05:23:10;7.50;98.00
57566;DHT22;63999;43.882;-0.310;2024-01-15T05:25:37;7.50;98.00
57566;DHT22;63999;43.882;-0.310;2024-01-15T05:28:05;7.50;98.10
57566;DHT22;63999;43.882;-0.310;2024-01-15T05:30:33;7.50;98.00
57566;DHT22;63999;43.882;-0.310;2024-01-15T05:33:03;7.50;98.10
57566;DHT22;63999;43.882;-0.310;2024-01-15T05:35:31;7.50;98.10
57566;DHT22;63999;43.882;-0.310;2024-01-15T05:37:58;7.50;98.10
57566;DHT22;63999;43.882;-0.310;2024-01-15T05:40:29;7.50;98.10
57566;DHT22;63999;43.882;-0.310;2024-01-15T05:42:57;7.50;98.00
57566;DHT22;63999;43.882;-0.310;2024-01-15T05:45:26;7.50;98.00
57566;DHT22;63999;43.882;-0.310;2024-01-15T05:47:54;7.50;98.10
57566;DHT22;63999;43.882;-0.310;2024-01-15T05:50:24;7.50;98.00
57566;DHT22;63999;43.882;-0.310;2024-01-15T05:52:51;7.50;98.00
57566;DHT22;63999;43.882;-0.310;2024-01-15T05:55:19;7.50;98.10
57566;DHT22;63999;43.882;-0.310;2024-01-15T05:57:46;7.50;98.00
57566;DHT22;63999;43.882;-0.310;2024-01-15T06:00:23;7.50;98.10
57566;DHT22;63999;43.882;-0.310;2024-01-15T06:02:52;7.50;98.00
57566;DHT22;63999;43.882;-0.310;2024-01-15T06:05:22;7.50;98.00
57566;DHT22;63999;43.882;-0.310;2024-01-15T06:07:49;7.50;98.00
57566;DHT22;63999;43.882;-0.310;2024-01-15T06:10:17;7.50;98.10
57566;DHT22;63999;43.882;-0.310;2024-01-15T06:12:50;7.50;98.00
57566;DHT22;63999;43.882;-0.310;2024-01-15T06:15:19;7.50;98.00
57566;DHT22;63999;43.882;-0.310;2024-01-15T06:17:46;7.50;98.00
57566;DHT22;63999;43.882;-0.310;2024-01-15T06:20:14;7.50;98.10
57566;DHT22;63999;43.882;-0.310;2024-01-15T06:22:41;7.50;98.10
57566;DHT22;63999;43.882;-0.310;2024-01-15T06:25:09;7.50;98.10
57566;DHT22;63999;43.882;-0.310;2024-01-15T06:27:37;7.50;98.10
57566;DHT22;63999;43.882;-0.310;2024-01-15T06:30:04;7.50;98.10
57566;DHT22;63999;43.882;-0.310;2024-01-15T06:32:38;7.50;98.20
57566;DHT22;63999;43.882;-0.310;2024-01-15T06:35:15;7.50;98.10
57566;DHT22;63999;43.882;-0.310;2024-01-15T06:37:45;7.50;98.20
57566;DHT22;63999;43.882;-0.310;2024-01-15T06:40:12;7.50;98.20
57566;DHT22;63999;43.882;-0.310;2024-01-15T06:42:41;7.60;98.10
57566;DHT22;63999;43.882;-0.310;2024-01-15T06:45:09;7.60;98.10
57566;DHT22;63999;43.882;-0.310;2024-01-15T06:47:37;7.60;98.10
57566;DHT22;63999;43.882;-0.310;2024-01-15T06:50:04;7.50;98.00
57566;DHT22;63999;43.882;-0.310;2024-01-15T06:52:34;7.50;98.00
57566;DHT22;63999;43.882;-0.310;2024-01-15T06:55:01;7.60;98.00
57566;DHT22;63999;43.882;-0.310;2024-01-15T06:57:32;7.50;98.10
57566;DHT22;63999;43.882;-0.310;2024-01-15T07:00:03;7.50;98.00
57566;DHT22;63999;43.882;-0.310;2024-01-15T07:02:35;7.50;98.00
57566;DHT22;63999;43.882;-0.310;2024-01-15T07:05:03;7.50;98.20
57566;DHT22;63999;43.882;-0.310;2024-01-15T07:07:32;7.60;98.10
57566;DHT22;63999;43.882;-0.310;2024-01-15T07:10:00;7.50;98.00
57566;DHT22;63999;43.882;-0.310;2024-01-15T07:12:27;7.50;98.10
57566;DHT22;63999;43.882;-0.310;2024-01-15T07:14:56;7.50;98.10
57566;DHT22;63999;43.882;-0.310;2024-01-15T07:17:25;7.60;98.10
57566;DHT22;63999;43.882;-0.310;2024-01-15T07:19:53;7.60;98.00
57566;DHT22;63999;43.882;-0.310;2024-01-15T07:22:21;7.60;98.20
57566;DHT22;63999;43.882;-0.310;2024-01-15T07:24:48;7.60;98.20
57566;DHT22;63999;43.882;-0.310;2024-01-15T07:27:15;7.60;98.20
57566;DHT22;63999;43.882;-0.310;2024-01-15T07:29:43;7.60;98.10
57566;DHT22;63999;43.882;-0.310;2024-01-15T07:32:10;7.60;98.00
57566;DHT22;63999;43.882;-0.310;2024-01-15T07:34:38;7.60;98.10
57566;DHT22;63999;43.882;-0.310;2024-01-15T07:37:05;7.60;98.10
57566;DHT22;63999;43.882;-0.310;2024-01-15T07:39:34;7.60;98.00
57566;DHT22;63999;43.882;-0.310;2024-01-15T07:42:04;7.60;98.10
57566;DHT22;63999;43.882;-0.310;2024-01-15T07:44:31;7.60;98.20
57566;DHT22;63999;43.882;-0.310;2024-01-15T07:46:59;7.60;98.20
57566;DHT22;63999;43.882;-0.310;2024-01-15T07:49:26;7.60;98.10
57566;DHT22;63999;43.882;-0.310;2024-01-15T07:51:54;7.60;98.20
57566;DHT22;63999;43.882;-0.310;2024-01-15T07:54:22;7.60;98.20
57566;DHT22;63999;43.882;-0.310;2024-01-15T07:56:55;7.60;98.20
57566;DHT22;63999;43.882;-0.310;2024-01-15T07:59:22;7.60;98.20
57566;DHT22;63999;43.882;-0.310;2024-01-15T08:01:51;7.60;98.10
57566;DHT22;63999;43.882;-0.310;2024-01-15T08:04:19;7.60;98.20
57566;DHT22;63999;43.882;-0.310;2024-01-15T08:06:48;7.60;98.20
57566;DHT22;63999;43.882;-0.310;2024-01-15T08:09:15;7.60;98.20
57566;DHT22;63999;43.882;-0.310;2024-01-15T08:11:43;7.60;98.10
57566;DHT22;63999;43.882;-0.310;2024-01-15T08:14:11;7.60;98.30
57566;DHT22;63999;43.882;-0.310;2024-01-15T08:16:38;7.60;98.30
57566;DHT22;63999;43.882;-0.310;2024-01-15T08:19:10;7.60;98.20
57566;DHT22;63999;43.882;-0.310;2024-01-15T08:21:38;7.60;98.30
57566;DHT22;63999;43.882;-0.310;2024-01-15T08:24:06;7.60;98.30
57566;DHT22;63999;43.882;-0.310;2024-01-15T08:26:33;7.60;98.30
57566;DHT22;63999;43.882;-0.310;2024-01-15T08:29:00;7.60;98.20
57566;DHT22;63999;43.882;-0.310;2024-01-15T08:31:28;7.60;98.20
57566;DHT22;63999;43.882;-0.310;2024-01-15T08:33:56;7.60;98.20
57566;DHT22;63999;43.882;-0.310;2024-01-15T08:36:24;7.60;98.20
57566;DHT22;63999;43.882;-0.310;2024-01-15T08:38:51;7.60;98.20
57566;DHT22;63999;43.882;-0.310;2024-01-15T08:41:19;7.60;98.20
57566;DHT22;63999;43.882;-0.310;2024-01-15T08:43:46;7.60;98.20
57566;DHT22;63999;43.882;-0.310;2024-01-15T08:46:13;7.60;98.20
57566;DHT22;63999;43.882;-0.310;2024-01-15T08:48:40;7.70;98.20
57566;DHT22;63999;43.882;-0.310;2024-01-15T08:51:08;7.60;98.20
57566;DHT22;63999;43.882;-0.310;2024-01-15T08:53:35;7.60;98.20
57566;DHT22;63999;43.882;-0.310;2024-01-15T08:56:02;7.60;98.10
57566;DHT22;63999;43.882;-0.310;2024-01-15T08:58:30;7.70;98.20
57566;DHT22;63999;43.882;-0.310;2024-01-15T09:00:57;7.70;98.20
57566;DHT22;63999;43.882;-0.310;2024-01-15T09:03:24;7.70;98.20
57566;DHT22;63999;43.882;-0.310;2024-01-15T09:05:52;7.70;98.30
57566;DHT22;63999;43.882;-0.310;2024-01-15T09:08:22;7.70;98.20
57566;DHT22;63999;43.882;-0.310;2024-01-15T09:10:49;7.70;98.20
57566;DHT22;63999;43.882;-0.310;2024-01-15T09:13:17;7.70;98.20
57566;DHT22;63999;43.882;-0.310;2024-01-15T09:15:44;7.70;98.20
57566;DHT22;63999;43.882;-0.310;2024-01-15T09:18:13;7.70;98.30
57566;DHT22;63999;43.882;-0.310;2024-01-15T09:20:40;7.70;98.30
57566;DHT22;63999;43.882;-0.310;2024-01-15T09:23:07;7.70;98.30
57566;DHT22;63999;43.882;-0.310;2024-01-15T09:25:35;7.80;98.20
57566;DHT22;63999;43.882;-0.310;2024-01-15T09:28:02;7.80;98.20
57566;DHT22;63999;43.882;-0.310;2024-01-15T09:30:30;7.80;98.30
57566;DHT22;63999;43.882;-0.310;2024-01-15T09:32:58;7.80;98.30
57566;DHT22;63999;43.882;-0.310;2024-01-15T09:35:26;7.80;98.20
57566;DHT22;63999;43.882;-0.310;2024-01-15T09:37:53;7.80;98.30
57566;DHT22;63999;43.882;-0.310;2024-01-15T09:40:20;7.80;98.30
57566;DHT22;63999;43.882;-0.310;2024-01-15T09:42:49;7.80;98.30
57566;DHT22;63999;43.882;-0.310;2024-01-15T09:45:17;7.80;98.20
57566;DHT22;63999;43.882;-0.310;2024-01-15T09:47:44;7.80;98.40
57566;DHT22;63999;43.882;-0.310;2024-01-15T09:50:13;7.80;98.30
57566;DHT22;63999;43.882;-0.310;2024-01-15T09:52:45;7.80;98.30
57566;DHT22;63999;43.882;-0.310;2024-01-15T09:55:13;7.80;98.40
57566;DHT22;63999;43.882;-0.310;2024-01-15T09:57:44;7.80;98.40
57566;DHT22;63999;43.882;-0.310;2024-01-15T10:00:15;7.80;98.40
57566;DHT22;63999;43.882;-0.310;2024-01-15T10:02:44;7.80;98.50
57566;DHT22;63999;43.882;-0.310;2024-01-15T10:05:12;7.80;98.40
57566;DHT22;63999;43.882;-0.310;2024-01-15T10:07:40;7.80;98.50
57566;DHT22;63999;43.882;-0.310;2024-01-15T10:10:08;7.80;98.40
57566;DHT22;63999;43.882;-0.310;2024-01-15T10:12:36;7.80;98.40
57566;DHT22;63999;43.882;-0.310;2024-01-15T10:15:04;7.80;98.40
57566;DHT22;63999;43.882;-0.310;2024-01-15T10:17:33;7.80;98.30
57566;DHT22;63999;43.882;-0.310;2024-01-15T10:20:10;7.80;98.30
57566;DHT22;63999;43.882;-0.310;2024-01-15T10:22:43;7.80;98.30
57566;DHT22;63999;43.882;-0.310;2024-01-15T10:25:12;7.80;98.30
57566;DHT22;63999;43.882;-0.310;2024-01-15T10:27:40;7.80;98.40
57566;DHT22;63999;43.882;-0.310;2024-01-15T10:30:11;7.80;98.40
57566;DHT22;63999;43.882;-0.310;2024-01-15T10:32:42;7.80;98.30
57566;DHT22;63999;43.882;-0.310;2024-01-15T10:35:26;7.80;98.30
57566;DHT22;63999;43.882;-0.310;2024-01-15T10:37:54;7.80;98.20
57566;DHT22;63999;43.882;-0.310;2024-01-15T10:40:22;7.80;98.20
57566;DHT22;63999;43.882;-0.310;2024-01-15T10:42:50;7.80;98.30
57566;DHT22;63999;43.882;-0.310;2024-01-15T10:45:19;7.80;98.40
57566;DHT22;63999;43.882;-0.310;2024-01-15T10:47:47;7.80;98.20
57566;DHT22;63999;43.882;-0.310;2024-01-15T10:50:15;7.80;98.20
57566;DHT22;63999;43.882;-0.310;2024-01-15T10:52:43;7.80;98.30
57566;DHT22;63999;43.882;-0.310;2024-01-15T10:55:11;7.80;98.30
57566;DHT22;63999;43.882;-0.310;2024-01-15T10:57:45;7.90;98.40
57566;DHT22;63999;43.882;-0.310;2024-01-15T11:00:15;7.80;98.30
57566;DHT22;63999;43.882;-0.310;2024-01-15T11:02:45;7.80;98.30
57566;DHT22;63999;43.882;-0.310;2024-01-15T11:05:12;7.90;98.30
57566;DHT22;63999;43.882;-0.310;2024-01-15T11:07:40;7.90;98.40
57566;DHT22;63999;43.882;-0.310;2024-01-15T11:11:02;7.90;98.40
57566;DHT22;63999;43.882;-0.310;2024-01-15T11:13:40;7.90;98.30
57566;DHT22;63999;43.882;-0.310;2024-01-15T11:16:12;8.00;98.40
57566;DHT22;63999;43.882;-0.310;2024-01-15T11:19:02;8.00;98.50
57566;DHT22;63999;43.882;-0.310;2024-01-15T11:21:30;8.00;98.50
57566;DHT22;63999;43.882;-0.310;2024-01-15T11:24:02;8.00;98.50
57566;DHT22;63999;43.882;-0.310;2024-01-15T11:29:08;8.00;98.40
57566;DHT22;63999;43.882;-0.310;2024-01-15T11:34:08;8.00;98.40
57566;DHT22;63999;43.882;-0.310;2024-01-15T11:42:05;8.00;98.50
57566;DHT22;63999;43.882;-0.310;2024-01-15T11:44:32;8.00;98.50
57566;DHT22;63999;43.882;-0.310;2024-01-15T11:47:03;8.00;98.40
57566;DHT22;63999;43.882;-0.310;2024-01-15T11:52:12;8.00;98.30
57566;DHT22;63999;43.882;-0.310;2024-01-15T12:00:06;8.00;98.40
57566;DHT22;63999;43.882;-0.310;2024-01-15T12:02:34;8.00;98.40
57566;DHT22;63999;43.882;-0.310;2024-01-15T12:05:02;8.00;98.20
57566;DHT22;63999;43.882;-0.310;2024-01-15T12:07:30;8.00;98.40
57566;DHT22;63999;43.882;-0.310;2024-01-15T12:09:58;8.00;98.40
57566;DHT22;63999;43.882;-0.310;2024-01-15T12:12:39;8.00;98.30
57566;DHT22;63999;43.882;-0.310;2024-01-15T12:15:07;8.00;98.40
57566;DHT22;63999;43.882;-0.310;2024-01-15T12:17:35;8.10;98.30
57566;DHT22;63999;43.882;-0.310;2024-01-15T12:20:05;8.00;98.40
57566;DHT22;63999;43.882;-0.310;2024-01-15T12:22:33;8.00;98.20
57566;DHT22;63999;43.882;-0.310;2024-01-15T12:25:23;8.10;98.20
57566;DHT22;63999;43.882;-0.310;2024-01-15T12:27:52;8.10;98.20
57566;DHT22;63999;43.882;-0.310;2024-01-15T12:30:20;8.10;98.40
57566;DHT22;63999;43.882;-0.310;2024-01-15T12:32:47;8.10;98.40
57566;DHT22;63999;43.882;-0.310;2024-01-15T12:35:15;8.10;98.40
57566;DHT22;63999;43.882;-0.310;2024-01-15T12:37:43;8.10;98.40
57566;DHT22;63999;43.882;-0.310;2024-01-15T12:40:14;8.10;98.20
57566;DHT22;63999;43.882;-0.310;2024-01-15T12:42:45;8.10;98.30
57566;DHT22;63999;43.882;-0.310;2024-01-15T12:45:14;8.10;98.40
57566;DHT22;63999;43.882;-0.310;2024-01-15T12:47:42;8.10;98.30
57566;DHT22;63999;43.882;-0.310;2024-01-15T12:50:12;8.10;98.30
57566;DHT22;63999;43.882;-0.310;2024-01-15T12:52:46;8.10;98.30
57566;DHT22;63999;43.882;-0.310;2024-01-15T12:55:14;8.10;98.20
57566;DHT22;63999;43.882;-0.310;2024-01-15T12:57:42;8.10;98.30
57566;DHT22;63999;43.882;-0.310;2024-01-15T13:00:10;8.10;98.30
57566;DHT22;63999;43.882;-0.310;2024-01-15T13:02:42;8.20;98.30
57566;DHT22;63999;43.882;-0.310;2024-01-15T13:05:11;8.20;98.30
57566;DHT22;63999;43.882;-0.310;2024-01-15T13:07:41;8.20;98.30
57566;DHT22;63999;43.882;-0.310;2024-01-15T13:10:10;8.20;98.30
57566;DHT22;63999;43.882;-0.310;2024-01-15T13:12:38;8.20;98.40
57566;DHT22;63999;43.882;-0.310;2024-01-15T13:15:06;8.20;98.40
57566;DHT22;63999;43.882;-0.310;2024-01-15T13:17:41;8.20;98.30
57566;DHT22;63999;43.882;-0.310;2024-01-15T13:20:10;8.20;98.40
57566;DHT22;63999;43.882;-0.310;2024-01-15T13:22:40;8.20;98.30
57566;DHT22;63999;43.882;-0.310;2024-01-15T13:25:08;8.20;98.50
57566;DHT22;63999;43.882;-0.310;2024-01-15T13:27:37;8.20;98.50
57566;DHT22;63999;43.882;-0.310;2024-01-15T13:30:07;8.30;98.50
57566;DHT22;63999;43.882;-0.310;2024-01-15T13:32:35;8.20;98.30
57566;DHT22;63999;43.882;-0.310;2024-01-15T13:35:03;8.30;98.40
57566;DHT22;63999;43.882;-0.310;2024-01-15T13:37:34;8.30;98.30
57566;DHT22;63999;43.882;-0.310;2024-01-15T13:40:04;8.30;98.30
57566;DHT22;63999;43.882;-0.310;2024-01-15T13:42:32;8.30;98.30
57566;DHT22;63999;43.882;-0.310;2024-01-15T13:44:59;8.30;98.40
57566;DHT22;63999;43.882;-0.310;2024-01-15T13:47:26;8.30;98.30
57566;DHT22;63999;43.882;-0.310;2024-01-15T13:49:53;8.30;98.30
57566;DHT22;63999;43.882;-0.310;2024-01-15T13:52:22;8.30;98.40
57566;DHT22;63999;43.882;-0.310;2024-01-15T13:54:49;8.30;98.30
57566;DHT22;63999;43.882;-0.310;2024-01-15T13:57:17;8.30;98.20
57566;DHT22;63999;43.882;-0.310;2024-01-15T13:59:45;8.30;98.30
57566;DHT22;63999;43.882;-0.310;2024-01-15T14:02:13;8.30;98.20
57566;DHT22;63999;43.882;-0.310;2024-01-15T14:04:49;8.30;98.30
57566;DHT22;63999;43.882;-0.310;2024-01-15T14:07:19;8.40;98.40
57566;DHT22;63999;43.882;-0.310;2024-01-15T14:09:46;8.40;98.30
57566;DHT22;63999;43.882;-0.310;2024-01-15T14:12:13;8.40;98.40
57566;DHT22;63999;43.882;-0.310;2024-01-15T14:14:42;8.40;98.40
57566;DHT22;63999;43.882;-0.310;2024-01-15T14:17:09;8.40;98.30
57566;DHT22;63999;43.882;-0.310;2024-01-15T14:19:36;8.40;98.30
57566;DHT22;63999;43.882;-0.310;2024-01-15T14:22:04;8.40;98.30
57566;DHT22;63999;43.882;-0.310;2024-01-15T14:24:31;8.40;98.20
57566;DHT22;63999;43.882;-0.310;2024-01-15T14:26:58;8.40;98.20
57566;DHT22;63999;43.882;-0.310;2024-01-15T14:29:25;8.40;98.40
57566;DHT22;63999;43.882;-0.310;2024-01-15T14:31:54;8.40;98.50
57566;DHT22;63999;43.882;-0.310;2024-01-15T14:34:22;8.40;98.40
57566;DHT22;63999;43.882;-0.310;2024-01-15T14:36:52;8.40;98.40
57566;DHT22;63999;43.882;-0.310;2024-01-15T14:39:23;8.50;98.40
57566;DHT22;63999;43.882;-0.310;2024-01-15T14:41:50;8.50;98.40
57566;DHT22;63999;43.882;-0.310;2024-01-15T14:44:18;8.50;98.30
57566;DHT22;63999;43.882;-0.310;2024-01-15T14:46:47;8.50;98.30
57566;DHT22;63999;43.882;-0.310;2024-01-15T14:49:15;8.50;98.30
57566;DHT22;63999;43.882;-0.310;2024-01-15T14:51:44;8.50;98.30
57566;DHT22;63999;43.882;-0.310;2024-01-15T14:54:12;8.50;98.40
57566;DHT22;63999;43.882;-0.310;2024-01-15T14:56:40;8.50;98.30
57566;DHT22;63999;43.882;-0.310;2024-01-15T14:59:07;8.50;98.30
57566;DHT22;63999;43.882;-0.310;2024-01-15T15:01:34;8.60;98.30
57566;DHT22;63999;43.882;-0.310;2024-01-15T15:04:02;8.60;98.30
57566;DHT22;63999;43.882;-0.310;2024-01-15T15:06:30;8.50;98.30
57566;DHT22;63999;43.882;-0.310;2024-01-15T15:08:57;8.60;98.30
57566;DHT22;63999;43.882;-0.310;2024-01-15T15:11:27;8.60;98.40
57566;DHT22;63999;43.882;-0.310;2024-01-15T15:13:55;8.60;98.40
57566;DHT22;63999;43.882;-0.310;2024-01-15T15:16:22;8.60;98.30
57566;DHT22;63999;43.882;-0.310;2024-01-15T15:18:49;8.60;98.30
57566;DHT22;63999;43.882;-0.310;2024-01-15T15:21:16;8.60;98.40
57566;DHT22;63999;43.882;-0.310;2024-01-15T15:23:44;8.60;98.30
57566;DHT22;63999;43.882;-0.310;2024-01-15T15:26:12;8.60;98.30
57566;DHT22;63999;43.882;-0.310;2024-01-15T15:28:39;8.60;98.30
57566;DHT22;63999;43.882;-0.310;2024-01-15T15:31:07;8.60;98.40
57566;DHT22;63999;43.882;-0.310;2024-01-15T15:33:40;8.60;98.30
57566;DHT22;63999;43.882;-0.310;2024-01-15T15:36:08;8.60;98.40
57566;DHT22;63999;43.882;-0.310;2024-01-15T15:38:35;8.60;98.40
57566;DHT22;63999;43.882;-0.310;2024-01-15T15:41:02;8.60;98.40
57566;DHT22;63999;43.882;-0.310;2024-01-15T15:43:30;8.60;98.30
57566;DHT22;63999;43.882;-0.310;2024-01-15T15:45:57;8.70;98.40
57566;DHT22;63999;43.882;-0.310;2024-01-15T15:48:28;8.70;98.50
57566;DHT22;63999;43.882;-0.310;2024-01-15T15:50:56;8.70;98.40
57566;DHT22;63999;43.882;-0.310;2024-01-15T15:53:23;8.70;98.30
57566;DHT22;63999;43.882;-0.310;2024-01-15T15:55:52;8.70;98.30
57566;DHT22;63999;43.882;-0.310;2024-01-15T15:58:19;8.70;98.30